createdAt,value
2022-07-31T00:00:16.819Z,1.80
2022-07-31T00:02:44.631Z,1.50
2022-07-31T00:05:11.482Z,1.77
2022-07-31T00:07:38.130Z,1.48
2022-07-31T00:10:05.763Z,1.52
2022-07-31T00:12:32.373Z,1.73
2022-07-31T00:15:04.133Z,1.40
2022-07-31T00:17:32.355Z,1.50
2022-07-31T00:19:58.834Z,1.80
2022-07-31T00:22:25.294Z,2.00
2022-07-31T00:24:51.801Z,1.92
2022-07-31T00:27:18.314Z,1.58
2022-07-31T00:29:44.794Z,1.60
2022-07-31T00:32:11.539Z,1.80
2022-07-31T00:34:38.113Z,1.60
2022-07-31T00:37:05.199Z,2.15
2022-07-31T00:39:32.632Z,2.20
2022-07-31T00:41:59.255Z,2.10
2022-07-31T00:44:26.040Z,1.75
2022-07-31T00:46:52.745Z,1.75
2022-07-31T00:49:20.037Z,1.80
2022-07-31T00:51:47.074Z,3.25
2022-07-31T00:54:16.290Z,2.63
2022-07-31T00:56:49.084Z,2.38
2022-07-31T00:59:15.674Z,2.63
2022-07-31T01:01:42.157Z,2.50
2022-07-31T01:04:08.653Z,2.42
2022-07-31T01:06:42.786Z,2.60
2022-07-31T01:09:09.537Z,2.13
2022-07-31T01:11:44.708Z,1.98
2022-07-31T01:14:12.136Z,2.35
2022-07-31T01:16:46.862Z,2.30
2022-07-31T01:19:43.634Z,2.13
2022-07-31T01:22:34.242Z,1.70
2022-07-31T01:25:21.290Z,2.13
2022-07-31T01:27:50.683Z,2.38
2022-07-31T01:32:49.309Z,2.30
2022-07-31T01:35:20.631Z,2.38
2022-07-31T01:38:07.858Z,2.70
2022-07-31T01:40:38.134Z,2.70
2022-07-31T01:43:11.663Z,6.93
2022-07-31T01:45:42.785Z,3.63
2022-07-31T01:48:15.857Z,3.63
2022-07-31T01:50:45.011Z,2.83
2022-07-31T01:53:15.213Z,2.95
2022-07-31T01:56:02.340Z,2.80
2022-07-31T01:58:34.945Z,2.65
2022-07-31T02:01:03.798Z,2.47
2022-07-31T02:03:44.530Z,2.70
2022-07-31T02:06:18.169Z,2.60
2022-07-31T02:08:50.541Z,2.60
2022-07-31T02:11:19.478Z,3.00
2022-07-31T02:13:47.330Z,2.58
2022-07-31T02:16:16.510Z,2.97
2022-07-31T02:18:43.570Z,3.08
2022-07-31T02:21:10.622Z,3.00
2022-07-31T02:23:38.545Z,3.10
2022-07-31T02:26:07.054Z,2.60
2022-07-31T02:28:38.012Z,2.80
2022-07-31T02:31:10.187Z,2.80
2022-07-31T02:33:38.214Z,2.65
2022-07-31T02:36:06.749Z,2.55
2022-07-31T02:38:35.138Z,3.45
2022-07-31T02:41:04.731Z,3.28
2022-07-31T02:43:33.255Z,3.53
2022-07-31T02:46:00.520Z,3.03
2022-07-31T02:48:27.777Z,2.88
2022-07-31T02:50:54.951Z,3.20
2022-07-31T02:53:22.102Z,3.63
2022-07-31T02:55:50.514Z,3.30
2022-07-31T02:58:17.139Z,3.38
2022-07-31T03:00:43.764Z,3.50
2022-07-31T03:03:10.290Z,3.10
2022-07-31T03:05:36.782Z,3.13
2022-07-31T03:08:03.326Z,3.78
2022-07-31T03:10:29.954Z,3.45
2022-07-31T03:12:58.261Z,3.42
2022-07-31T03:15:27.379Z,3.40
2022-07-31T03:17:54.865Z,4.30
2022-07-31T03:20:22.274Z,4.30
2022-07-31T03:22:49.620Z,3.97
2022-07-31T03:25:21.923Z,3.67
2022-07-31T03:27:55.948Z,4.00
2022-07-31T03:30:26.552Z,4.00
2022-07-31T03:32:54.918Z,3.85
2022-07-31T03:35:22.319Z,3.95
2022-07-31T03:37:49.533Z,3.97
2022-07-31T03:40:16.066Z,3.92
2022-07-31T03:42:43.378Z,3.55
2022-07-31T03:45:12.117Z,4.10
2022-07-31T03:47:38.660Z,4.88
2022-07-31T03:50:06.665Z,4.78
2022-07-31T03:52:33.490Z,5.15
2022-07-31T03:55:00.066Z,5.20
2022-07-31T03:57:29.053Z,5.50
2022-07-31T03:59:59.331Z,5.00
2022-07-31T04:02:27.447Z,4.95
2022-07-31T04:04:55.178Z,4.90
2022-07-31T04:07:21.643Z,5.00
2022-07-31T04:09:48.269Z,5.05
2022-07-31T04:12:14.989Z,4.68
2022-07-31T04:14:41.691Z,4.82
2022-07-31T04:17:08.570Z,4.82
2022-07-31T04:19:35.218Z,4.97
2022-07-31T04:22:02.546Z,4.35
2022-07-31T04:24:29.290Z,4.50
2022-07-31T04:26:56.971Z,5.10
2022-07-31T04:29:24.236Z,5.18
2022-07-31T04:31:51.012Z,4.70
2022-07-31T04:34:17.730Z,5.15
2022-07-31T04:36:44.226Z,5.18
2022-07-31T04:39:10.715Z,5.05
2022-07-31T04:41:37.305Z,4.85
2022-07-31T04:44:03.851Z,5.22
2022-07-31T04:46:30.358Z,4.90
2022-07-31T04:48:56.973Z,4.63
2022-07-31T04:51:24.743Z,4.97
2022-07-31T04:53:52.354Z,5.55
2022-07-31T04:56:37.316Z,5.53
2022-07-31T04:59:09.500Z,5.82
2022-07-31T05:01:36.573Z,5.47
2022-07-31T05:04:03.561Z,5.10
2022-07-31T05:06:35.362Z,5.25
2022-07-31T05:09:05.553Z,5.45
2022-07-31T05:11:36.352Z,5.47
2022-07-31T05:14:05.173Z,5.45
2022-07-31T05:16:33.575Z,5.30
2022-07-31T05:19:00.300Z,5.07
2022-07-31T05:21:27.187Z,5.60
2022-07-31T05:23:55.077Z,6.38
2022-07-31T05:26:22.026Z,5.55
2022-07-31T05:28:49.614Z,5.50
2022-07-31T05:31:18.205Z,5.53
2022-07-31T05:33:45.582Z,5.53
2022-07-31T05:36:12.775Z,5.40
2022-07-31T05:38:39.693Z,5.32
2022-07-31T05:41:06.332Z,5.82
2022-07-31T05:43:33.119Z,5.72
2022-07-31T05:45:59.728Z,5.45
2022-07-31T05:48:26.185Z,5.10
2022-07-31T05:50:52.768Z,5.25
2022-07-31T05:53:20.333Z,5.65
2022-07-31T05:55:49.125Z,5.68
2022-07-31T05:58:17.195Z,5.07
2022-07-31T06:00:46.315Z,5.25
2022-07-31T06:03:13.434Z,4.32
2022-07-31T06:05:41.175Z,4.70
2022-07-31T06:08:09.622Z,4.38
2022-07-31T06:10:37.373Z,4.97
2022-07-31T06:13:05.259Z,4.72
2022-07-31T06:15:36.354Z,4.57
2022-07-31T06:18:04.028Z,4.32
2022-07-31T06:20:30.981Z,4.60
2022-07-31T06:22:57.582Z,4.63
2022-07-31T06:25:24.231Z,4.40
2022-07-31T06:27:59.207Z,4.60
2022-07-31T06:30:27.996Z,4.57
2022-07-31T06:32:54.724Z,4.68
2022-07-31T06:35:21.265Z,5.13
2022-07-31T06:37:47.851Z,4.68
2022-07-31T06:40:14.578Z,5.05
2022-07-31T06:42:41.906Z,4.25
2022-07-31T06:45:09.358Z,4.60
2022-07-31T06:47:35.984Z,4.50
2022-07-31T06:50:03.646Z,4.40
2022-07-31T06:52:30.127Z,3.97
2022-07-31T06:54:56.607Z,4.05
2022-07-31T06:57:23.115Z,3.80
2022-07-31T06:59:49.621Z,3.72
2022-07-31T07:02:16.382Z,3.60
2022-07-31T07:04:56.320Z,3.20
2022-07-31T07:07:31.657Z,3.30
2022-07-31T07:09:58.852Z,3.30
2022-07-31T07:12:25.371Z,3.28
2022-07-31T07:14:53.505Z,3.13
2022-07-31T07:17:20.027Z,3.30
2022-07-31T07:19:46.695Z,3.72
2022-07-31T07:22:31.982Z,3.20
2022-07-31T07:25:00.352Z,3.10
2022-07-31T07:27:27.013Z,3.35
2022-07-31T07:29:53.523Z,3.17
2022-07-31T07:32:20.139Z,3.25
2022-07-31T07:34:46.607Z,2.78
2022-07-31T07:37:13.254Z,2.97
2022-07-31T07:39:39.722Z,2.97
2022-07-31T07:42:06.656Z,2.95
2022-07-31T07:44:34.060Z,3.17
2022-07-31T07:47:00.531Z,2.92
2022-07-31T07:49:27.100Z,2.78
2022-07-31T07:51:59.152Z,2.72
2022-07-31T07:54:36.336Z,2.85
2022-07-31T07:57:02.913Z,3.92
2022-07-31T07:59:29.401Z,3.28
2022-07-31T08:01:56.391Z,3.25
2022-07-31T08:04:22.908Z,2.72
2022-07-31T08:06:49.377Z,3.03
2022-07-31T08:09:15.903Z,2.85
2022-07-31T08:11:42.578Z,2.88
2022-07-31T08:14:09.588Z,2.40
2022-07-31T08:16:36.092Z,2.50
2022-07-31T08:19:02.707Z,2.33
2022-07-31T08:21:29.225Z,1.83
2022-07-31T08:23:55.819Z,2.40
2022-07-31T08:26:22.705Z,1.92
2022-07-31T08:28:54.849Z,2.42
2022-07-31T08:31:22.662Z,2.50
2022-07-31T08:33:49.171Z,2.50
2022-07-31T08:36:15.805Z,2.10
2022-07-31T08:38:42.291Z,2.13
2022-07-31T08:41:08.817Z,1.98
2022-07-31T08:44:00.618Z,2.50
2022-07-31T08:46:24.569Z,2.33
2022-07-31T08:48:54.482Z,2.20
2022-07-31T08:51:24.026Z,2.20
2022-07-31T08:53:54.489Z,2.42
2022-07-31T08:56:22.117Z,2.63
2022-07-31T08:58:48.690Z,2.40
2022-07-31T09:01:15.372Z,2.67
2022-07-31T09:03:42.210Z,2.78
2022-07-31T09:06:08.751Z,2.47
2022-07-31T09:08:36.949Z,2.33
2022-07-31T09:11:09.212Z,2.47
2022-07-31T09:13:36.022Z,2.22
2022-07-31T09:16:03.930Z,2.17
2022-07-31T09:18:31.205Z,2.70
2022-07-31T09:20:57.695Z,2.10
2022-07-31T09:23:26.538Z,2.15
2022-07-31T09:25:55.716Z,2.25
2022-07-31T09:28:35.718Z,2.35
2022-07-31T09:31:04.347Z,2.40
2022-07-31T09:33:32.014Z,2.47
2022-07-31T09:35:59.769Z,2.45
2022-07-31T09:38:44.706Z,2.22
2022-07-31T09:41:56.398Z,2.65
2022-07-31T09:44:10.156Z,2.47
2022-07-31T09:46:41.360Z,2.28
2022-07-31T09:49:08.057Z,2.78
2022-07-31T09:51:54.138Z,3.30
2022-07-31T09:54:25.673Z,2.42
2022-07-31T09:56:54.784Z,2.50
2022-07-31T10:01:49.022Z,2.80
2022-07-31T10:04:20.661Z,2.65
2022-07-31T10:06:49.230Z,2.20
2022-07-31T10:09:18.983Z,2.72
2022-07-31T10:11:48.680Z,2.70
2022-07-31T10:14:24.042Z,2.20
2022-07-31T10:16:56.290Z,2.85
2022-07-31T10:19:23.671Z,2.72
2022-07-31T10:21:59.708Z,3.28
2022-07-31T10:24:30.124Z,3.28
2022-07-31T10:27:10.518Z,2.85
2022-07-31T10:29:39.355Z,3.30
2022-07-31T10:32:07.704Z,3.00
2022-07-31T10:34:35.272Z,3.83
2022-07-31T10:37:15.103Z,3.08
2022-07-31T10:40:03.854Z,3.13
2022-07-31T10:42:48.578Z,2.53
2022-07-31T10:45:17.356Z,2.50
2022-07-31T10:48:13.385Z,1.98
2022-07-31T10:50:39.913Z,2.50
2022-07-31T10:53:12.588Z,2.50
2022-07-31T10:55:39.697Z,2.20
2022-07-31T10:58:15.468Z,2.28
2022-07-31T11:00:43.108Z,2.42
2022-07-31T11:03:16.706Z,2.45
2022-07-31T11:06:02.549Z,2.30
2022-07-31T11:08:44.467Z,2.72
2022-07-31T11:11:11.497Z,2.40
2022-07-31T11:13:58.104Z,2.67
2022-07-31T11:16:29.076Z,2.50
2022-07-31T11:19:06.851Z,2.47
2022-07-31T11:21:39.753Z,2.28
2022-07-31T11:24:17.283Z,2.30
2022-07-31T11:26:51.492Z,2.95
2022-07-31T11:29:59.799Z,2.20
2022-07-31T11:32:26.439Z,2.53
2022-07-31T11:34:55.408Z,2.13
2022-07-31T11:37:35.296Z,1.70
2022-07-31T11:40:13.605Z,1.38
2022-07-31T11:42:59.782Z,1.98
2022-07-31T11:45:33.476Z,1.63
2022-07-31T11:48:12.394Z,1.90
2022-07-31T11:50:44.590Z,2.00
2022-07-31T11:53:12.055Z,2.03
2022-07-31T11:55:48.750Z,1.98
2022-07-31T11:58:16.878Z,2.30
2022-07-31T12:00:53.630Z,2.20
2022-07-31T12:03:23.501Z,2.67
2022-07-31T12:05:54.995Z,2.50
2022-07-31T12:08:24.232Z,2.00
2022-07-31T12:13:22.664Z,1.60
2022-07-31T12:16:09.435Z,1.98
2022-07-31T12:18:59.052Z,1.73
2022-07-31T12:21:37.652Z,1.80
2022-07-31T12:24:12.511Z,1.63
2022-07-31T12:26:42.869Z,1.92
2022-07-31T12:29:11.509Z,1.50
2022-07-31T12:31:49.776Z,1.70
2022-07-31T12:34:30.191Z,1.20
2022-07-31T12:36:58.714Z,1.40
2022-07-31T12:39:53.781Z,1.45
2022-07-31T12:42:30.342Z,1.27
2022-07-31T12:44:58.916Z,1.23
2022-07-31T12:47:31.701Z,1.47
2022-07-31T12:49:59.336Z,1.50
2022-07-31T12:52:31.415Z,1.50
2022-07-31T12:54:58.707Z,1.60
2022-07-31T12:57:26.208Z,1.75
2022-07-31T12:59:54.438Z,1.60
2022-07-31T13:02:24.267Z,1.63
2022-07-31T13:04:50.771Z,1.77
2022-07-31T13:07:17.326Z,2.08
2022-07-31T13:09:44.988Z,2.05
2022-07-31T13:12:31.468Z,2.20
2022-07-31T13:14:57.958Z,2.10
2022-07-31T13:17:24.826Z,2.10
2022-07-31T13:19:51.277Z,1.98
2022-07-31T13:22:20.133Z,1.90
2022-07-31T13:24:47.062Z,2.30
2022-07-31T13:27:14.635Z,2.30
2022-07-31T13:29:41.362Z,1.98
2022-07-31T13:32:08.927Z,2.40
2022-07-31T13:34:35.969Z,2.25
2022-07-31T13:37:02.828Z,2.53
2022-07-31T13:39:29.549Z,2.88
2022-07-31T13:41:55.967Z,2.75
2022-07-31T13:44:22.422Z,2.97
2022-07-31T13:46:48.937Z,2.80
2022-07-31T13:49:15.640Z,2.40
2022-07-31T13:51:42.268Z,2.85
2022-07-31T13:54:08.783Z,3.28
2022-07-31T13:56:42.350Z,2.55
2022-07-31T13:59:11.669Z,2.75
2022-07-31T14:02:02.775Z,3.10
2022-07-31T14:04:32.378Z,2.80
2022-07-31T14:07:01.344Z,3.22
2022-07-31T14:09:30.410Z,2.80
2022-07-31T14:11:57.066Z,3.00
2022-07-31T14:14:24.015Z,2.97
2022-07-31T14:16:51.003Z,2.90
2022-07-31T14:19:17.719Z,3.08
2022-07-31T14:21:56.057Z,3.70
2022-07-31T14:24:24.389Z,3.85
2022-07-31T14:26:50.843Z,3.42
2022-07-31T14:29:17.485Z,3.70
2022-07-31T14:31:43.954Z,3.83
2022-07-31T14:34:10.471Z,3.45
2022-07-31T14:36:36.950Z,3.10
2022-07-31T14:39:03.533Z,2.80
2022-07-31T14:41:32.678Z,2.80
2022-07-31T14:43:59.389Z,2.50
2022-07-31T14:46:25.883Z,2.60
2022-07-31T14:48:52.521Z,2.20
2022-07-31T14:51:19.483Z,3.47
2022-07-31T14:53:46.831Z,2.75
2022-07-31T14:56:13.513Z,2.90
2022-07-31T14:58:57.821Z,3.13
2022-07-31T15:01:26.870Z,2.88
2022-07-31T15:03:57.888Z,2.80
2022-07-31T15:06:49.264Z,3.47
2022-07-31T15:09:11.321Z,2.97
2022-07-31T15:12:00.526Z,2.80
2022-07-31T15:14:24.422Z,2.72
2022-07-31T15:16:50.910Z,2.58
2022-07-31T15:19:17.643Z,2.67
2022-07-31T15:22:15.827Z,2.85
2022-07-31T15:24:34.623Z,2.83
2022-07-31T15:27:01.947Z,2.40
2022-07-31T15:30:05.554Z,2.80
2022-07-31T15:32:17.799Z,2.83
2022-07-31T15:34:44.914Z,2.72
2022-07-31T15:37:11.558Z,2.80
2022-07-31T15:40:02.502Z,2.80
2022-07-31T15:42:31.867Z,2.72
2022-07-31T15:44:58.472Z,2.70
2022-07-31T15:47:25.253Z,3.38
2022-07-31T15:49:51.813Z,2.95
2022-07-31T15:52:19.554Z,3.55
2022-07-31T15:54:47.526Z,3.85
2022-07-31T15:57:19.350Z,3.80
2022-07-31T15:59:46.569Z,3.65
2022-07-31T16:02:13.451Z,3.60
2022-07-31T16:04:52.534Z,3.47
2022-07-31T16:08:30.982Z,3.08
2022-07-31T16:10:17.939Z,4.00
2022-07-31T16:12:45.692Z,3.40
2022-07-31T16:15:12.930Z,3.33
2022-07-31T16:17:40.274Z,3.22
2022-07-31T16:20:20.632Z,3.30
2022-07-31T16:23:00.822Z,3.20
2022-07-31T16:25:29.068Z,3.22
2022-07-31T16:27:55.889Z,3.80
2022-07-31T16:30:22.908Z,3.80
2022-07-31T16:32:50.067Z,3.53
2022-07-31T16:35:16.655Z,3.25
2022-07-31T16:37:51.016Z,3.45
2022-07-31T16:40:28.929Z,3.45
2022-07-31T16:43:49.453Z,3.50
2022-07-31T16:45:55.094Z,3.30
2022-07-31T16:48:21.858Z,3.10
2022-07-31T16:50:54.095Z,3.08
2022-07-31T16:54:12.125Z,2.85
2022-07-31T16:56:12.937Z,2.90
2022-07-31T16:58:39.804Z,2.95
2022-07-31T17:01:06.369Z,3.10
2022-07-31T17:04:01.650Z,2.80
2022-07-31T17:06:35.885Z,2.80
2022-07-31T17:09:16.266Z,2.85
2022-07-31T17:11:46.522Z,2.95
2022-07-31T17:14:13.101Z,2.80
2022-07-31T17:16:43.459Z,2.85
2022-07-31T17:19:13.201Z,3.05
2022-07-31T17:21:43.967Z,3.92
2022-07-31T17:24:15.856Z,3.20
2022-07-31T17:26:43.570Z,3.72
2022-07-31T17:29:10.163Z,3.25
2022-07-31T17:31:36.664Z,3.70
2022-07-31T17:34:07.303Z,4.10
2022-07-31T17:36:35.878Z,4.47
2022-07-31T17:39:03.416Z,4.20
2022-07-31T17:41:30.466Z,3.78
2022-07-31T17:43:58.095Z,4.30
2022-07-31T17:46:29.338Z,4.50
2022-07-31T17:49:04.905Z,5.82
2022-07-31T17:51:32.210Z,6.13
2022-07-31T17:53:59.266Z,6.80
2022-07-31T17:56:26.652Z,7.93
2022-07-31T17:58:53.317Z,7.50
2022-07-31T18:01:19.877Z,6.78
2022-07-31T18:03:46.437Z,6.72
2022-07-31T18:06:12.947Z,7.88
2022-07-31T18:08:39.442Z,7.60
2022-07-31T18:11:09.399Z,7.90
2022-07-31T18:13:48.174Z,7.60
2022-07-31T18:16:17.511Z,8.05
2022-07-31T18:18:44.861Z,7.07
2022-07-31T18:21:11.984Z,8.02
2022-07-31T18:23:47.149Z,7.95
2022-07-31T18:26:15.135Z,7.47
2022-07-31T18:28:43.127Z,7.72
2022-07-31T18:31:15.530Z,7.30
2022-07-31T18:33:57.615Z,7.82
2022-07-31T18:36:24.108Z,8.30
2022-07-31T18:38:52.046Z,8.50
2022-07-31T18:41:23.054Z,8.80
2022-07-31T18:43:50.201Z,9.10
2022-07-31T18:46:17.004Z,9.68
2022-07-31T18:48:44.415Z,9.18
2022-07-31T18:51:11.390Z,10.18
2022-07-31T18:53:37.925Z,9.23
2022-07-31T18:56:04.890Z,9.43
2022-07-31T18:58:31.931Z,9.40
2022-07-31T19:00:58.761Z,9.10
2022-07-31T19:03:26.588Z,9.38
2022-07-31T19:05:54.625Z,8.98
2022-07-31T19:08:21.788Z,8.82
2022-07-31T19:10:55.561Z,10.20
2022-07-31T19:13:23.554Z,9.75
2022-07-31T19:15:53.223Z,9.15
2022-07-31T19:21:15.945Z,9.45
2022-07-31T19:23:43.355Z,9.73
2022-07-31T19:26:09.857Z,10.18
2022-07-31T19:28:38.064Z,9.13
2022-07-31T19:31:04.551Z,10.10
2022-07-31T19:33:31.376Z,10.10
2022-07-31T19:36:01.938Z,10.48
2022-07-31T19:38:31.141Z,10.02
2022-07-31T19:40:57.801Z,10.70
2022-07-31T19:43:24.324Z,11.63
2022-07-31T19:46:10.741Z,10.52
2022-07-31T19:48:39.629Z,7.82
2022-07-31T19:51:06.535Z,8.10
2022-07-31T19:53:33.105Z,6.65
2022-07-31T19:56:01.885Z,6.18
2022-07-31T19:58:28.396Z,6.25
2022-07-31T20:00:54.935Z,5.95
2022-07-31T20:03:21.525Z,5.60
2022-07-31T20:05:48.028Z,5.40
2022-07-31T20:08:14.491Z,5.30
2022-07-31T20:10:41.034Z,5.13
2022-07-31T20:13:07.514Z,5.03
2022-07-31T20:15:51.537Z,5.07
2022-07-31T20:18:27.582Z,5.50
2022-07-31T20:21:03.679Z,5.00
2022-07-31T20:23:31.100Z,5.70
2022-07-31T20:25:58.628Z,5.63
2022-07-31T20:28:26.459Z,5.75
2022-07-31T20:30:53.318Z,5.47
2022-07-31T20:33:20.302Z,6.03
2022-07-31T20:35:49.213Z,5.65
2022-07-31T20:38:20.481Z,6.00
2022-07-31T20:40:53.776Z,6.10
2022-07-31T20:43:26.475Z,6.07
2022-07-31T20:45:53.728Z,6.20
2022-07-31T20:48:23.871Z,6.47
2022-07-31T20:50:51.203Z,5.68
2022-07-31T20:53:17.709Z,5.97
2022-07-31T20:55:49.330Z,5.68
2022-07-31T20:58:18.010Z,5.63
2022-07-31T21:00:45.436Z,6.25
2022-07-31T21:03:12.021Z,5.80
2022-07-31T21:05:38.588Z,5.88
2022-07-31T21:08:05.491Z,6.13
2022-07-31T21:10:32.028Z,6.28
2022-07-31T21:12:58.576Z,6.32
2022-07-31T21:15:40.721Z,5.70
2022-07-31T21:18:08.148Z,6.57
2022-07-31T21:20:51.384Z,5.53
2022-07-31T21:23:22.054Z,6.55
2022-07-31T21:25:48.882Z,6.28
2022-07-31T21:28:15.624Z,6.65
2022-07-31T21:30:42.283Z,7.05
2022-07-31T21:33:09.922Z,6.70
2022-07-31T21:35:37.564Z,6.15
2022-07-31T21:38:05.014Z,6.90
2022-07-31T21:40:36.049Z,6.60
2022-07-31T21:43:03.426Z,6.95
2022-07-31T21:45:51.035Z,6.97
2022-07-31T21:48:19.713Z,6.82
2022-07-31T21:50:46.674Z,7.35
2022-07-31T21:53:14.206Z,7.38
2022-07-31T21:55:41.037Z,7.90
2022-07-31T21:58:08.884Z,7.40
2022-07-31T22:00:35.496Z,7.50
2022-07-31T22:03:02.856Z,8.45
2022-07-31T22:05:48.723Z,8.75
2022-07-31T22:08:15.279Z,7.93
2022-07-31T22:10:42.130Z,8.35
2022-07-31T22:13:08.742Z,8.63
2022-07-31T22:15:55.560Z,9.05
2022-07-31T22:18:22.092Z,8.35
2022-07-31T22:20:48.727Z,7.88
2022-07-31T22:23:15.534Z,8.57
2022-07-31T22:25:42.957Z,8.70
2022-07-31T22:28:09.967Z,8.90
2022-07-31T22:30:36.646Z,9.45
2022-07-31T22:33:04.852Z,9.80
2022-07-31T22:35:32.460Z,9.77
2022-07-31T22:37:58.979Z,9.57
2022-07-31T22:40:25.616Z,10.43
2022-07-31T22:42:57.453Z,9.90
2022-07-31T22:45:25.279Z,10.30
2022-07-31T22:47:52.035Z,10.32
2022-07-31T22:50:18.588Z,9.02
2022-07-31T22:52:45.156Z,9.38
2022-07-31T22:55:13.598Z,9.52
2022-07-31T22:57:43.618Z,8.55
2022-07-31T23:00:13.167Z,7.78
2022-07-31T23:02:41.203Z,8.73
2022-07-31T23:05:08.976Z,8.05
2022-07-31T23:07:35.616Z,8.23
2022-07-31T23:10:02.420Z,8.65
2022-07-31T23:12:29.632Z,8.43
2022-07-31T23:14:56.461Z,8.32
2022-07-31T23:17:23.628Z,8.88
2022-07-31T23:19:54.191Z,10.27
2022-07-31T23:22:33.798Z,10.32
2022-07-31T23:25:05.232Z,10.90
2022-07-31T23:27:33.095Z,11.25
2022-07-31T23:30:00.029Z,11.80
2022-07-31T23:32:27.690Z,12.27
2022-07-31T23:34:54.546Z,13.02
2022-07-31T23:37:21.260Z,13.48
2022-07-31T23:39:47.773Z,14.20
2022-07-31T23:42:33.181Z,14.07
2022-07-31T23:44:59.754Z,13.43
2022-07-31T23:47:27.967Z,14.07
2022-07-31T23:50:11.790Z,13.70
2022-07-31T23:52:38.296Z,13.27
2022-07-31T23:55:05.061Z,14.25
2022-07-31T23:57:34.161Z,13.50
